createdAt,value
2022-09-11T00:02:10.825Z,99408.28
2022-09-11T00:04:39.647Z,99404.81
2022-09-11T00:07:08.245Z,99410.84
2022-09-11T00:09:37.389Z,99404.59
2022-09-11T00:12:07.395Z,99402.75
2022-09-11T00:14:35.800Z,99400.94
2022-09-11T00:17:04.520Z,99392.28
2022-09-11T00:19:35.748Z,99392.28
2022-09-11T00:22:06.085Z,99389.66
2022-09-11T00:24:34.604Z,99385.31
2022-09-11T00:27:03.233Z,99385.31
2022-09-11T00:29:32.626Z,99381.75
2022-09-11T00:32:01.625Z,99387.75
2022-09-11T00:34:30.287Z,99386.94
2022-09-11T00:37:00.252Z,99389.66
2022-09-11T00:39:29.156Z,99384.50
2022-09-11T00:41:58.728Z,99387.84
2022-09-11T00:45:01.684Z,99386.16
2022-09-11T00:47:32.274Z,99387.94
2022-09-11T00:50:11.362Z,99381.94
2022-09-11T00:52:52.967Z,99380.19
2022-09-11T00:55:28.100Z,99376.69
2022-09-11T00:58:01.317Z,99376.16
2022-09-11T01:00:30.159Z,99378.78
2022-09-11T01:02:59.477Z,99370.97
2022-09-11T01:05:35.023Z,99371.19
2022-09-11T01:08:05.041Z,99372.88
2022-09-11T01:10:43.667Z,99367.63
2022-09-11T01:13:22.150Z,99364.13
2022-09-11T01:16:04.325Z,99365.09
2022-09-11T01:18:37.403Z,99372.88
2022-09-11T01:21:45.914Z,99361.50
2022-09-11T01:24:34.752Z,99366.56
2022-09-11T01:27:21.970Z,99363.84
2022-09-11T01:29:55.465Z,99359.50
2022-09-11T01:32:28.725Z,99361.31
2022-09-11T01:35:04.445Z,99356.03
2022-09-11T01:37:43.168Z,99344.53
2022-09-11T01:40:23.914Z,99339.28
2022-09-11T01:43:01.495Z,99341.06
2022-09-11T01:45:33.068Z,99341.91
2022-09-11T01:48:03.640Z,99342.63
2022-09-11T01:50:36.094Z,99340.84
2022-09-11T01:53:10.611Z,99346.97
2022-09-11T01:55:44.012Z,99340.94
2022-09-11T01:58:19.581Z,99344.34
2022-09-11T02:00:51.036Z,99339.81
2022-09-11T02:03:25.617Z,99338.13
2022-09-11T02:06:01.486Z,99343.28
2022-09-11T02:08:36.263Z,99339.81
2022-09-11T02:11:09.435Z,99345.94
2022-09-11T02:13:47.968Z,99338.84
2022-09-11T02:16:23.017Z,99331.59
2022-09-11T02:19:01.144Z,99337.59
2022-09-11T02:21:31.139Z,99331.47
2022-09-11T02:24:01.002Z,99324.44
2022-09-11T02:26:33.077Z,99323.47
2022-09-11T02:29:02.977Z,99326.97
2022-09-11T02:31:31.405Z,99329.59
2022-09-11T02:34:00.581Z,99326.00
2022-09-11T02:37:27.639Z,99321.47
2022-09-11T02:40:10.715Z,99318.31
2022-09-11T02:42:50.919Z,99316.81
2022-09-11T02:45:35.745Z,99319.25
2022-09-11T02:48:27.989Z,99323.56
2022-09-11T02:51:07.241Z,99316.81
2022-09-11T02:53:50.916Z,99331.59
2022-09-11T02:56:37.794Z,99324.44
2022-09-11T02:59:13.133Z,99319.16
2022-09-11T03:01:53.835Z,99314.75
2022-09-11T03:04:29.549Z,99322.75
2022-09-11T03:07:15.900Z,99316.63
2022-09-11T03:09:44.265Z,99305.47
2022-09-11T03:12:19.145Z,99320.22
2022-09-11T03:14:50.705Z,99313.25
2022-09-11T03:17:21.978Z,99311.56
2022-09-11T03:19:50.316Z,99311.56
2022-09-11T03:22:20.064Z,99318.53
2022-09-11T03:24:49.282Z,99312.50
2022-09-11T03:27:18.834Z,99314.31
2022-09-11T03:29:47.225Z,99310.94
2022-09-11T03:32:17.364Z,99310.09
2022-09-11T03:34:47.979Z,99308.28
2022-09-11T03:37:18.168Z,99308.38
2022-09-11T03:39:48.512Z,99311.97
2022-09-11T03:42:17.805Z,99305.03
2022-09-11T03:44:46.865Z,99308.53
2022-09-11T03:47:15.662Z,99311.97
2022-09-11T03:49:46.416Z,99308.63
2022-09-11T03:52:15.438Z,99307.75
2022-09-11T03:54:44.092Z,99310.41
2022-09-11T03:57:13.218Z,99307.75
2022-09-11T03:59:41.744Z,99301.69
2022-09-11T04:02:14.043Z,99307.88
2022-09-11T04:04:43.343Z,99306.81
2022-09-11T04:07:14.535Z,99302.59
2022-09-11T04:09:44.327Z,99311.44
2022-09-11T04:12:16.694Z,99308.81
2022-09-11T04:14:45.552Z,99302.81
2022-09-11T04:17:14.705Z,99302.81
2022-09-11T04:19:45.205Z,99301.25
2022-09-11T04:22:16.597Z,99305.66
2022-09-11T04:24:45.389Z,99310.19
2022-09-11T04:27:16.042Z,99306.63
2022-09-11T04:29:47.923Z,99298.09
2022-09-11T04:32:18.483Z,99301.63
2022-09-11T04:34:49.143Z,99300.72
2022-09-11T04:37:21.317Z,99305.03
2022-09-11T04:39:50.999Z,99303.22
2022-09-11T04:42:21.000Z,99300.59
2022-09-11T04:44:51.208Z,99296.28
2022-09-11T04:47:21.281Z,99294.50
2022-09-11T04:49:55.314Z,99297.03
2022-09-11T04:52:27.248Z,99293.34
2022-09-11T04:54:57.644Z,99295.97
2022-09-11T04:57:28.632Z,99295.97
2022-09-11T04:59:58.862Z,99294.28
2022-09-11T05:02:27.633Z,99297.03
2022-09-11T05:04:57.038Z,99290.06
2022-09-11T05:07:27.216Z,99289.13
2022-09-11T05:09:58.331Z,99291.75
2022-09-11T05:12:30.565Z,99292.59
2022-09-11T05:15:01.164Z,99289.84
2022-09-11T05:17:33.676Z,99288.19
2022-09-11T05:20:03.668Z,99284.69
2022-09-11T05:22:34.259Z,99290.72
2022-09-11T05:25:04.649Z,99296.81
2022-09-11T05:27:33.317Z,99294.06
2022-09-11T05:30:03.290Z,99299.34
2022-09-11T05:32:32.394Z,99296.81
2022-09-11T05:35:03.436Z,99301.34
2022-09-11T05:37:34.168Z,99301.34
2022-09-11T05:40:03.590Z,99302.06
2022-09-11T05:42:32.148Z,99294.16
2022-09-11T05:45:00.622Z,99300.19
2022-09-11T05:47:30.173Z,99291.13
2022-09-11T05:49:58.807Z,99299.97
2022-09-11T05:52:30.644Z,99301.88
2022-09-11T05:55:00.869Z,99303.66
2022-09-11T05:57:31.077Z,99306.38
2022-09-11T06:00:01.039Z,99293.22
2022-09-11T06:02:32.429Z,99293.22
2022-09-11T06:05:02.070Z,99298.38
2022-09-11T06:07:31.202Z,99292.16
2022-09-11T06:10:03.425Z,99297.22
2022-09-11T06:12:34.877Z,99293.63
2022-09-11T06:15:05.168Z,99292.09
2022-09-11T06:17:33.969Z,99296.69
2022-09-11T06:20:02.706Z,99293.25
2022-09-11T06:22:33.965Z,99298.19
2022-09-11T06:25:04.576Z,99293.66
2022-09-11T06:27:33.283Z,99298.94
2022-09-11T06:30:02.114Z,99295.13
2022-09-11T06:32:35.652Z,99297.75
2022-09-11T06:35:05.405Z,99289.75
2022-09-11T06:37:37.192Z,99293.97
2022-09-11T06:40:08.507Z,99293.56
2022-09-11T06:42:38.496Z,99300.06
2022-09-11T06:45:08.683Z,99287.75
2022-09-11T06:47:37.268Z,99293.63
2022-09-11T06:50:07.004Z,99291.50
2022-09-11T06:52:46.263Z,99289.84
2022-09-11T06:55:25.482Z,99296.59
2022-09-11T06:58:02.637Z,99302.06
2022-09-11T07:00:34.446Z,99296.38
2022-09-11T07:03:04.026Z,99295.94
2022-09-11T07:05:33.940Z,99297.97
2022-09-11T07:08:04.339Z,99297.97
2022-09-11T07:10:37.727Z,99302.19
2022-09-11T07:13:06.493Z,99301.47
2022-09-11T07:15:36.021Z,99299.03
2022-09-11T07:18:08.219Z,99294.47
2022-09-11T07:20:43.641Z,99287.75
2022-09-11T07:23:15.406Z,99296.19
2022-09-11T07:25:50.328Z,99302.94
2022-09-11T07:28:20.005Z,99295.53
2022-09-11T07:30:48.946Z,99297.22
2022-09-11T07:33:19.003Z,99290.03
2022-09-11T07:35:48.431Z,99291.84
2022-09-11T07:38:19.614Z,99296.47
2022-09-11T07:40:57.296Z,99286.16
2022-09-11T07:43:27.496Z,99286.16
2022-09-11T07:45:58.306Z,99288.81
2022-09-11T07:48:27.444Z,99286.78
2022-09-11T07:51:02.656Z,99282.13
2022-09-11T07:53:34.608Z,99295.41
2022-09-11T07:56:07.112Z,99288.38
2022-09-11T07:58:38.204Z,99286.69
2022-09-11T08:01:09.155Z,99295.41
2022-09-11T08:03:38.871Z,99296.16
2022-09-11T08:06:10.569Z,99294.25
2022-09-11T08:08:39.457Z,99298.47
2022-09-11T08:11:14.441Z,99292.38
2022-09-11T08:13:51.057Z,99288.97
2022-09-11T08:16:23.111Z,99288.38
2022-09-11T08:18:55.130Z,99286.44
2022-09-11T08:21:26.950Z,99289.84
2022-09-11T08:23:56.079Z,99290.78
2022-09-11T08:26:28.819Z,99293.19
2022-09-11T08:29:02.033Z,99292.13
2022-09-11T08:31:33.966Z,99292.78
2022-09-11T08:34:03.851Z,99298.56
2022-09-11T08:36:32.680Z,99301.72
2022-09-11T08:39:03.151Z,99305.84
2022-09-11T08:41:43.820Z,99303.31
2022-09-11T08:44:18.663Z,99295.38
2022-09-11T08:46:52.422Z,99295.28
2022-09-11T08:49:27.112Z,99309.19
2022-09-11T08:52:02.326Z,99297.50
2022-09-11T08:54:36.692Z,99297.41
2022-09-11T08:57:19.053Z,99306.59
2022-09-11T09:00:07.386Z,99303.00
2022-09-11T09:02:58.745Z,99307.97
2022-09-11T09:05:36.794Z,99304.56
2022-09-11T09:08:21.363Z,99300.03
2022-09-11T09:10:54.746Z,99301.72
2022-09-11T09:13:42.965Z,99301.63
2022-09-11T09:16:30.156Z,99304.47
2022-09-11T09:19:03.537Z,99309.84
2022-09-11T09:21:38.900Z,99296.16
2022-09-11T09:24:19.655Z,99310.06
2022-09-11T09:26:54.974Z,99308.81
2022-09-11T09:29:35.142Z,99306.72
2022-09-11T09:32:08.499Z,99303.03
2022-09-11T09:34:41.146Z,99305.44
2022-09-11T09:37:18.022Z,99307.56
2022-09-11T09:39:48.001Z,99308.53
2022-09-11T09:42:58.992Z,99305.25
2022-09-11T09:45:43.934Z,99305.13
2022-09-11T09:48:13.119Z,99313.03
2022-09-11T09:50:44.829Z,99306.84
2022-09-11T09:53:21.848Z,99311.97
2022-09-11T09:55:52.065Z,99305.66
2022-09-11T09:58:23.337Z,99298.41
2022-09-11T10:00:53.166Z,99303.78
2022-09-11T10:03:24.060Z,99305.56
2022-09-11T10:05:54.733Z,99303.56
2022-09-11T10:08:31.580Z,99307.78
2022-09-11T10:11:02.241Z,99301.75
2022-09-11T10:13:33.598Z,99312.41
2022-09-11T10:16:05.966Z,99307.78
2022-09-11T10:18:43.133Z,99311.75
2022-09-11T10:21:33.543Z,99313.66
2022-09-11T10:24:04.844Z,99306.78
2022-09-11T10:26:36.121Z,99316.28
2022-09-11T10:29:10.442Z,99314.69
2022-09-11T10:31:43.124Z,99321.97
2022-09-11T10:34:20.267Z,99320.59
2022-09-11T10:36:55.159Z,99325.16
2022-09-11T10:39:27.526Z,99318.31
2022-09-11T10:41:59.524Z,99323.78
2022-09-11T10:44:29.584Z,99320.19
2022-09-11T10:47:07.328Z,99326.53
2022-09-11T10:49:36.374Z,99327.81
2022-09-11T10:52:18.930Z,99326.44
2022-09-11T10:55:00.274Z,99325.28
2022-09-11T10:57:36.134Z,99329.06
2022-09-11T11:00:14.477Z,99330.00
2022-09-11T11:02:46.843Z,99325.06
2022-09-11T11:05:24.832Z,99327.78
2022-09-11T11:08:24.205Z,99332.09
2022-09-11T11:11:07.004Z,99338.41
2022-09-11T11:13:56.938Z,99336.22
2022-09-11T11:16:35.736Z,99340.63
2022-09-11T11:19:36.905Z,99337.59
2022-09-11T11:22:13.737Z,99339.19
2022-09-11T11:24:56.030Z,99338.31
2022-09-11T11:27:39.477Z,99346.97
2022-09-11T11:30:17.452Z,99346.88
2022-09-11T11:33:07.518Z,99347.59
2022-09-11T11:35:46.050Z,99358.16
2022-09-11T11:38:22.531Z,99358.34
2022-09-11T11:40:56.030Z,99353.06
2022-09-11T11:43:29.324Z,99350.44
2022-09-11T11:46:03.405Z,99352.06
2022-09-11T11:48:38.706Z,99354.03
2022-09-11T11:51:16.994Z,99359.19
2022-09-11T11:53:51.780Z,99364.38
2022-09-11T11:56:29.215Z,99374.50
2022-09-11T11:59:03.997Z,99376.41
2022-09-11T12:01:40.163Z,99386.81
2022-09-11T12:04:20.617Z,99385.53
2022-09-11T12:06:51.305Z,99384.19
2022-09-11T12:09:20.238Z,99385.81
2022-09-11T12:11:53.648Z,99390.63
2022-09-11T12:14:28.961Z,99385.34
2022-09-11T12:16:58.349Z,99378.56
2022-09-11T12:19:27.190Z,99388.06
2022-09-11T12:22:38.694Z,99383.19
2022-09-11T12:25:45.668Z,99391.28
2022-09-11T12:28:24.080Z,99382.97
2022-09-11T12:31:00.475Z,99386.06
2022-09-11T12:33:54.733Z,99380.84
2022-09-11T12:36:34.141Z,99373.09
2022-09-11T12:39:15.785Z,99368.84
2022-09-11T12:41:46.036Z,99372.66
2022-09-11T12:44:54.237Z,99376.34
2022-09-11T12:47:24.934Z,99368.97
2022-09-11T12:49:58.436Z,99364.25
2022-09-11T12:52:36.712Z,99374.38
2022-09-11T12:55:22.819Z,99366.81
2022-09-11T12:57:52.268Z,99367.00
2022-09-11T13:00:29.572Z,99366.19
2022-09-11T13:02:59.344Z,99371.44
2022-09-11T13:05:34.718Z,99367.31
2022-09-11T13:08:08.281Z,99368.22
2022-09-11T13:10:40.483Z,99365.97
2022-09-11T13:13:44.122Z,99367.47
2022-09-11T13:16:20.281Z,99371.88
2022-09-11T13:18:49.272Z,99361.84
2022-09-11T13:21:22.106Z,99355.94
2022-09-11T13:23:55.164Z,99370.19
2022-09-11T13:26:31.707Z,99363.91
2022-09-11T13:29:02.338Z,99363.31
2022-09-11T13:31:35.883Z,99365.88
2022-09-11T13:34:08.470Z,99366.22
2022-09-11T13:36:38.193Z,99354.94
2022-09-11T13:39:09.079Z,99357.09
2022-09-11T13:41:43.837Z,99357.94
2022-09-11T13:44:24.496Z,99358.28
2022-09-11T13:46:53.625Z,99345.97
2022-09-11T13:49:36.521Z,99353.22
2022-09-11T13:52:07.318Z,99345.28
2022-09-11T13:54:39.118Z,99342.34
2022-09-11T13:57:16.316Z,99343.66
2022-09-11T13:59:55.788Z,99345.78
2022-09-11T14:02:46.918Z,99349.16
2022-09-11T14:05:19.282Z,99343.88
2022-09-11T14:07:57.684Z,99347.84
2022-09-11T14:10:31.003Z,99349.59
2022-09-11T14:13:06.565Z,99354.09
2022-09-11T14:15:41.677Z,99354.41
2022-09-11T14:18:22.597Z,99354.50
2022-09-11T14:20:51.758Z,99359.72
2022-09-11T14:23:25.438Z,99357.81
2022-09-11T14:26:14.910Z,99350.97
2022-09-11T14:29:01.863Z,99351.06
2022-09-11T14:31:37.015Z,99348.63
2022-09-11T14:34:14.126Z,99357.03
2022-09-11T14:36:46.075Z,99354.19
2022-09-11T14:39:26.174Z,99350.84
2022-09-11T14:41:55.817Z,99340.94
2022-09-11T14:44:27.487Z,99337.09
2022-09-11T14:46:56.326Z,99340.72
2022-09-11T14:49:25.217Z,99338.19
2022-09-11T14:51:59.567Z,99330.38
2022-09-11T14:54:31.291Z,99334.47
2022-09-11T14:57:00.891Z,99336.00
2022-09-11T14:59:31.226Z,99330.88
2022-09-11T15:02:00.183Z,99344.94
2022-09-11T15:04:30.053Z,99340.50
2022-09-11T15:07:00.054Z,99344.59
2022-09-11T15:09:29.591Z,99343.50
2022-09-11T15:11:59.156Z,99344.72
2022-09-11T15:14:52.346Z,99337.34
2022-09-11T15:17:20.629Z,99344.56
2022-09-11T15:19:50.379Z,99341.34
2022-09-11T15:22:19.263Z,99333.50
2022-09-11T15:24:50.019Z,99344.09
2022-09-11T15:27:20.740Z,99335.41
2022-09-11T15:29:50.306Z,99336.28
2022-09-11T15:32:21.677Z,99332.78
2022-09-11T15:34:51.930Z,99330.97
2022-09-11T15:37:21.148Z,99334.94
2022-09-11T15:39:51.390Z,99337.56
2022-09-11T15:42:20.568Z,99343.13
2022-09-11T15:44:51.025Z,99344.91
2022-09-11T15:47:22.350Z,99345.88
2022-09-11T15:50:13.468Z,99347.66
2022-09-11T15:52:47.642Z,99345.28
2022-09-11T15:55:18.177Z,99342.97
2022-09-11T15:57:48.033Z,99349.94
2022-09-11T16:00:19.161Z,99345.72
2022-09-11T16:02:52.837Z,99340.69
2022-09-11T16:05:23.280Z,99338.16
2022-09-11T16:07:54.698Z,99342.56
2022-09-11T16:10:23.513Z,99341.84
2022-09-11T16:12:58.708Z,99346.53
2022-09-11T16:15:28.717Z,99346.63
2022-09-11T16:18:00.179Z,99346.97
2022-09-11T16:20:30.123Z,99354.41
2022-09-11T16:23:09.047Z,99351.16
2022-09-11T16:25:42.630Z,99351.63
2022-09-11T16:28:12.096Z,99351.84
2022-09-11T16:30:45.675Z,99349.31
2022-09-11T16:33:18.317Z,99340.69
2022-09-11T16:35:58.837Z,99347.03
2022-09-11T16:38:29.411Z,99356.75
2022-09-11T16:41:03.145Z,99348.72
2022-09-11T16:43:32.426Z,99352.31
2022-09-11T16:46:01.207Z,99352.53
2022-09-11T16:48:33.286Z,99351.78
2022-09-11T16:51:03.207Z,99346.75
2022-09-11T16:53:34.452Z,99349.41
2022-09-11T16:56:06.486Z,99351.44
2022-09-11T16:58:41.130Z,99362.09
2022-09-11T17:01:12.462Z,99360.44
2022-09-11T17:03:49.605Z,99364.00
2022-09-11T17:06:19.711Z,99371.31
2022-09-11T17:08:50.699Z,99372.16
2022-09-11T17:11:21.596Z,99373.34
2022-09-11T17:13:50.975Z,99386.66
2022-09-11T17:16:21.440Z,99386.03
2022-09-11T17:18:54.323Z,99390.47
2022-09-11T17:21:24.297Z,99406.41
2022-09-11T17:23:54.999Z,99401.38
2022-09-11T17:26:25.331Z,99406.13
2022-09-11T17:29:19.930Z,99406.81
2022-09-11T17:32:26.881Z,99403.88
2022-09-11T17:35:00.490Z,99416.03
2022-09-11T17:37:29.617Z,99427.75
2022-09-11T17:40:16.442Z,99430.59
2022-09-11T17:43:07.513Z,99434.50
2022-09-11T17:45:36.723Z,99436.22
2022-09-11T17:48:37.498Z,99430.09
2022-09-11T17:51:18.195Z,99436.31
2022-09-11T17:58:36.692Z,99438.28
2022-09-11T18:01:05.929Z,99444.63
2022-09-11T18:03:35.689Z,99445.69
2022-09-11T18:06:17.026Z,99459.81
2022-09-11T18:08:47.738Z,99460.34
2022-09-11T18:11:16.758Z,99464.47
2022-09-11T18:13:45.614Z,99467.81
2022-09-11T18:16:14.711Z,99477.75
2022-09-11T18:18:45.311Z,99471.53
2022-09-11T18:21:14.430Z,99482.50
2022-09-11T18:23:45.518Z,99487.34
2022-09-11T18:26:23.433Z,99480.06
2022-09-11T18:28:56.836Z,99473.59
2022-09-11T18:31:26.223Z,99479.38
2022-09-11T18:33:57.880Z,99475.47
2022-09-11T18:36:27.600Z,99479.53
2022-09-11T18:39:00.031Z,99492.41
2022-09-11T18:41:32.828Z,99484.16
2022-09-11T18:44:04.246Z,99491.50
2022-09-11T18:46:33.797Z,99494.34
2022-09-11T18:49:04.297Z,99496.34
2022-09-11T18:51:33.329Z,99498.31
2022-09-11T18:54:03.784Z,99497.78
2022-09-11T18:56:35.970Z,99502.28
2022-09-11T18:59:05.079Z,99506.81
2022-09-11T19:02:02.669Z,99507.00
2022-09-11T19:04:32.045Z,99505.47
2022-09-11T19:07:00.968Z,99513.59
2022-09-11T19:09:30.122Z,99507.75
2022-09-11T19:12:03.685Z,99508.59
2022-09-11T19:14:36.058Z,99501.75
2022-09-11T19:17:05.686Z,99496.78
2022-09-11T19:19:34.909Z,99506.38
2022-09-11T19:22:05.415Z,99496.00
2022-09-11T19:24:36.023Z,99501.59
2022-09-11T19:27:06.932Z,99502.41
2022-09-11T19:29:35.906Z,99500.91
2022-09-11T19:32:04.625Z,99495.00
2022-09-11T19:34:38.539Z,99497.00
2022-09-11T19:37:08.247Z,99502.16
2022-09-11T19:39:37.053Z,99499.63
2022-09-11T19:42:09.645Z,99502.34
2022-09-11T19:44:38.429Z,99495.41
2022-09-11T19:47:07.269Z,99499.06
2022-09-11T19:49:37.096Z,99494.06
2022-09-11T19:52:06.946Z,99490.72
2022-09-11T19:54:38.164Z,99492.56
2022-09-11T19:57:08.652Z,99488.34
2022-09-11T19:59:38.297Z,99490.06
2022-09-11T20:02:07.836Z,99491.06
2022-09-11T20:04:39.100Z,99491.06
2022-09-11T20:07:08.047Z,99488.44
2022-09-11T20:09:39.050Z,99491.06
2022-09-11T20:12:09.943Z,99490.16
2022-09-11T20:14:42.405Z,99492.00
2022-09-11T20:17:11.521Z,99486.03
2022-09-11T20:19:42.779Z,99491.06
2022-09-11T20:22:11.884Z,99490.34
2022-09-11T20:24:40.378Z,99486.03
2022-09-11T20:27:11.159Z,99494.66
2022-09-11T20:29:41.907Z,99491.19
2022-09-11T20:32:13.144Z,99498.88
2022-09-11T20:34:42.064Z,99499.91
2022-09-11T20:37:11.098Z,99494.84
2022-09-11T20:39:40.090Z,99500.13
2022-09-11T20:42:13.716Z,99497.38
2022-09-11T20:44:42.776Z,99502.91
2022-09-11T20:47:16.418Z,99495.31
2022-09-11T20:50:20.585Z,99500.69
2022-09-11T20:52:51.963Z,99499.91
2022-09-11T20:55:21.142Z,99501.59
2022-09-11T20:58:45.726Z,99491.06
2022-09-11T21:01:19.235Z,99488.56
2022-09-11T21:03:49.293Z,99495.59
2022-09-11T21:06:23.425Z,99495.59
2022-09-11T21:08:56.115Z,99489.22
2022-09-11T21:11:25.190Z,99484.59
2022-09-11T21:13:54.055Z,99481.69
2022-09-11T21:17:13.320Z,99481.38
2022-09-11T21:24:12.503Z,99486.72
2022-09-11T21:26:43.805Z,99487.47
2022-09-11T21:29:14.627Z,99492.75
2022-09-11T21:31:43.299Z,99484.00
2022-09-11T21:34:13.595Z,99483.25
2022-09-11T21:36:42.804Z,99487.84
2022-09-11T21:39:14.432Z,99491.63
2022-09-11T21:41:46.330Z,99486.66
2022-09-11T21:44:14.723Z,99492.22
2022-09-11T21:46:46.724Z,99492.38
2022-09-11T21:49:15.609Z,99491.66
2022-09-11T21:51:44.746Z,99487.03
2022-09-11T21:54:13.700Z,99487.13
2022-09-11T21:56:46.008Z,99482.16
2022-09-11T21:59:17.469Z,99481.13
2022-09-11T22:01:46.791Z,99480.28
2022-09-11T22:04:15.833Z,99484.69
2022-09-11T22:06:44.635Z,99484.59
2022-09-11T22:09:20.722Z,99477.56
2022-09-11T22:11:51.902Z,99484.59
2022-09-11T22:14:21.958Z,99483.75
2022-09-11T22:16:50.920Z,99482.16
2022-09-11T22:19:20.241Z,99482.03
2022-09-11T22:21:51.769Z,99481.22
2022-09-11T22:24:20.528Z,99479.72
2022-09-11T22:26:49.372Z,99487.78
2022-09-11T22:29:19.539Z,99489.00
2022-09-11T22:31:48.127Z,99490.81
2022-09-11T22:34:16.879Z,99486.69
2022-09-11T22:36:45.771Z,99479.81
2022-09-11T22:39:15.675Z,99482.44
2022-09-11T22:41:44.715Z,99484.34
2022-09-11T22:44:14.491Z,99485.09
2022-09-11T22:46:48.674Z,99486.75
2022-09-11T22:49:18.483Z,99486.75
2022-09-11T22:51:47.072Z,99484.91
2022-09-11T22:54:16.197Z,99489.22
2022-09-11T22:56:44.933Z,99486.38
2022-09-11T22:59:14.064Z,99484.50
2022-09-11T23:01:45.082Z,99481.78
2022-09-11T23:04:14.402Z,99481.69
2022-09-11T23:07:00.587Z,99480.84
2022-09-11T23:09:30.571Z,99488.66
2022-09-11T23:11:59.835Z,99481.69
2022-09-11T23:14:28.841Z,99492.97
2022-09-11T23:16:59.890Z,99484.13
2022-09-11T23:19:29.846Z,99481.50
2022-09-11T23:21:59.015Z,99488.66
2022-09-11T23:24:27.805Z,99482.75
2022-09-11T23:26:56.906Z,99488.75
2022-09-11T23:29:28.170Z,99481.78
2022-09-11T23:31:59.839Z,99489.78
2022-09-11T23:34:29.281Z,99482.16
2022-09-11T23:36:57.899Z,99483.41
2022-09-11T23:39:27.491Z,99481.72
2022-09-11T23:41:56.504Z,99487.81
2022-09-11T23:44:26.333Z,99486.13
2022-09-11T23:46:55.418Z,99482.72
2022-09-11T23:49:31.233Z,99484.53
2022-09-11T23:52:03.949Z,99476.81
2022-09-11T23:54:33.070Z,99482.28
2022-09-11T23:57:02.054Z,99479.75
2022-09-11T23:59:35.663Z,99482.44
